Time;durP1;ratioP1;P1;durP2;ratioP2;P2;SDS_P1;SDS_P2;PMS_P1;PMS_P2;Temp;Humidity;BMP_temperature;BMP_pressure;BME280_temperature;BME280_humidity;BME280_pressure;Samples;Min_cycle;Max_cycle;Signal;HPM_P1;HPM_P2
2023/06/29 00:07:39;;;;;;;14.10;12.40;;;;;;;15.96;92.93;99258.69;431427;1270;140290;-69
2023/06/29 00:18:03;;;;;;;14.20;12.10;;;;;;;15.86;93.10;99263.40;431008;1270;140917;-68
2023/06/29 00:28:27;;;;;;;12.50;11.30;;;;;;;15.74;93.28;99268.59;430866;1270;140035;-70
2023/06/29 00:38:52;;;;;;;18.00;13.00;;;;;;;15.63;93.66;99278.52;430933;1270;140564;-68
2023/06/29 00:49:17;;;;;;;14.80;13.30;;;;;;;15.57;93.70;99275.95;430873;1271;140656;-68
2023/06/29 00:59:41;;;;;;;14.20;12.10;;;;;;;15.46;93.93;99275.20;430968;1268;139633;-68
2023/06/29 01:10:08;;;;;;;12.20;11.10;;;;;;;15.32;94.03;99275.14;431060;1270;139434;-68
2023/06/29 01:20:33;;;;;;;15.00;14.10;;;;;;;15.12;94.16;99268.36;431484;1272;140244;-68
2023/06/29 01:30:56;;;;;;;12.80;11.70;;;;;;;14.89;94.58;99254.66;431483;1272;140516;-69
2023/06/29 01:41:23;;;;;;;16.50;14.20;;;;;;;14.69;95.08;99265.55;432079;1268;139642;-68
2023/06/29 01:51:47;;;;;;;14.20;12.90;;;;;;;14.56;95.72;99254.84;432442;1270;140154;-68
2023/06/29 02:02:12;;;;;;;13.80;12.30;;;;;;;14.50;95.86;99257.55;431756;1267;139628;-70
2023/06/29 02:12:36;;;;;;;15.00;13.50;;;;;;;14.46;96.14;99259.81;431374;1273;140641;-68
2023/06/29 02:23:00;;;;;;;15.60;14.10;;;;;;;14.44;96.29;99265.41;430816;1270;140837;-70
2023/06/29 02:33:24;;;;;;;17.90;14.40;;;;;;;14.41;96.51;99271.23;431328;1271;139458;-68
2023/06/29 02:43:48;;;;;;;16.60;14.90;;;;;;;14.36;96.44;99280.30;430766;1272;142015;-69
2023/06/29 02:54:12;;;;;;;13.10;11.80;;;;;;;14.37;96.81;99291.04;431247;1273;140792;-68
2023/06/29 03:04:36;;;;;;;13.50;12.10;;;;;;;14.41;96.86;99300.33;430984;1271;140750;-68
2023/06/29 03:15:00;;;;;;;12.90;11.60;;;;;;;14.42;96.72;99313.48;430776;1272;139450;-68
2023/06/29 03:25:24;;;;;;;13.20;11.90;;;;;;;14.39;96.55;99313.41;430859;1272;140099;-68
2023/06/29 03:35:49;;;;;;;15.50;12.50;;;;;;;14.40;96.60;99321.95;431056;1267;139447;-67
2023/06/29 03:46:13;;;;;;;20.60;14.00;;;;;;;14.42;96.59;99325.63;430806;1270;183424;-69
2023/06/29 03:56:37;;;;;;;14.50;12.70;;;;;;;14.47;96.66;99333.64;430884;1267;141474;-67
2023/06/29 04:07:01;;;;;;;17.10;15.40;;;;;;;14.58;96.58;99344.36;430800;1268;140712;-69
2023/06/29 04:17:25;;;;;;;16.10;14.40;;;;;;;14.71;96.37;99347.16;430967;1271;140027;-68
2023/06/29 04:27:49;;;;;;;17.20;13.80;;;;;;;14.79;96.07;99353.52;431420;1272;139411;-68
2023/06/29 04:38:13;;;;;;;15.40;13.40;;;;;;;14.92;95.77;99356.98;431033;1267;140516;-69
2023/06/29 04:48:37;;;;;;;16.00;14.40;;;;;;;14.93;95.35;99353.73;431391;1270;139471;-69
2023/06/29 04:59:01;;;;;;;17.00;14.30;;;;;;;15.15;95.27;99356.99;431176;1267;139695;-68
2023/06/29 05:09:25;;;;;;;15.80;14.10;;;;;;;15.35;94.73;99369.95;430888;1268;139802;-68
2023/06/29 05:19:49;;;;;;;14.80;13.20;;;;;;;15.54;94.43;99372.30;430966;1272;140540;-68
2023/06/29 05:30:16;;;;;;;13.50;12.30;;;;;;;15.73;93.78;99372.63;430968;1269;139652;-67
2023/06/29 05:40:39;;;;;;;13.80;12.30;;;;;;;15.86;93.40;99386.48;431253;1269;139966;-75
2023/06/29 05:51:04;;;;;;;15.10;13.20;;;;;;;16.07;93.02;99387.66;431556;1270;140432;-78
2023/06/29 06:01:28;;;;;;;15.80;12.20;;;;;;;16.49;92.41;99377.48;432237;1267;140080;-71
2023/06/29 06:11:54;;;;;;;11.10;10.00;;;;;;;17.06;91.22;99380.88;433255;1270;139477;-67
2023/06/29 06:22:18;;;;;;;16.50;11.80;;;;;;;17.56;89.26;99382.16;433870;1271;139643;-73
2023/06/29 06:32:42;;;;;;;11.40;9.70;;;;;;;18.02;88.14;99387.35;433802;1267;140154;-72
2023/06/29 06:43:06;;;;;;;10.60;9.00;;;;;;;19.53;87.00;99390.88;434229;1270;140319;-71
2023/06/29 06:53:30;;;;;;;10.00;8.60;;;;;;;22.26;80.76;99394.52;434735;1267;139239;-78
2023/06/29 07:03:54;;;;;;;7.40;6.80;;;;;;;27.72;72.86;99387.75;434465;1267;139611;-75
2023/06/29 07:14:18;;;;;;;7.40;6.70;;;;;;;33.78;61.36;99376.23;433060;1267;140651;-65
2023/06/29 07:24:44;;;;;;;5.30;4.90;;;;;;;39.86;47.76;99368.48;430759;1267;139115;-64
2023/06/29 07:35:10;;;;;;;5.90;4.10;;;;;;;44.93;39.02;99362.36;430468;1271;198702;-63
2023/06/29 07:45:33;;;;;;;7.60;5.00;;;;;;;47.73;32.34;99358.10;430734;1267;139560;-64
2023/06/29 07:55:58;;;;;;;6.60;4.30;;;;;;;48.07;27.73;99357.15;430649;1267;139568;-64
2023/06/29 08:06:22;;;;;;;65.70;13.60;;;;;;;39.81;28.54;99349.63;431101;1267;140113;-66
2023/06/29 08:16:49;;;;;;;7.00;4.70;;;;;;;34.14;32.11;99338.78;431056;1268;139078;-66
2023/06/29 08:27:13;;;;;;;5.50;5.00;;;;;;;31.62;35.17;99334.56;430499;1267;140068;-65
2023/06/29 08:37:37;;;;;;;5.80;3.80;;;;;;;29.70;37.05;99332.23;430503;1267;139285;-65
2023/06/29 08:48:03;;;;;;;5.30;4.80;;;;;;;29.21;38.22;99339.34;430947;1268;139210;-72
2023/06/29 08:58:28;;;;;;;5.70;3.70;;;;;;;28.65;39.27;99341.34;433704;1267;138560;-73
2023/06/29 09:08:51;;;;;;;10.90;4.60;;;;;;;28.50;39.70;99338.88;434665;1267;139072;-67
2023/06/29 09:19:16;;;;;;;8.20;5.30;;;;;;;28.60;39.98;99334.21;430755;1267;140430;-67
2023/06/29 09:29:49;;;;;;;7.90;2.90;;;;;;;28.52;40.18;99332.14;432663;1268;138655;-68
2023/06/29 09:40:14;;;;;;;6.30;3.40;;;;;;;28.50;40.52;99328.08;431644;1267;139333;-69
2023/06/29 09:50:37;;;;;;;4.70;3.80;;;;;;;28.23;40.57;99324.72;431526;1267;139053;-70
2023/06/29 10:01:01;;;;;;;7.90;3.90;;;;;;;27.68;40.82;99318.86;431313;1267;139563;-66
2023/06/29 10:11:29;;;;;;;5.00;3.30;;;;;;;27.55;41.52;99311.44;431346;1268;138789;-65
2023/06/29 10:21:57;;;;;;;6.80;3.80;;;;;;;27.41;41.92;99297.42;431197;1272;139197;-66
2023/06/29 10:32:32;;;;;;;9.80;3.70;;;;;;;27.36;42.16;99295.42;431081;1272;138660;-70
2023/06/29 10:42:57;;;;;;;3.70;2.80;;;;;;;27.39;42.39;99288.96;434253;1272;138976;-73
2023/06/29 10:53:21;;;;;;;4.80;2.60;;;;;;;27.28;42.38;99286.45;431250;1272;140783;-67
2023/06/29 11:03:47;;;;;;;7.80;2.90;;;;;;;27.04;42.04;99273.76;431149;1267;140046;-66
2023/06/29 11:14:12;;;;;;;3.10;2.80;;;;;;;26.88;42.37;99269.60;431502;1271;140081;-65
2023/06/29 11:24:36;;;;;;;11.90;4.30;;;;;;;27.21;41.94;99266.77;432273;1272;139244;-66
2023/06/29 11:35:01;;;;;;;5.30;2.40;;;;;;;27.30;41.19;99261.23;431458;1267;138548;-65
2023/06/29 11:45:25;;;;;;;4.10;2.70;;;;;;;26.76;42.00;99258.41;431708;1273;140153;-65
2023/06/29 11:55:53;;;;;;;3.70;2.20;;;;;;;27.01;41.59;99241.70;431753;1267;138980;-67
2023/06/29 12:06:18;;;;;;;3.30;2.60;;;;;;;26.77;41.24;99235.20;430948;1268;138976;-66
2023/06/29 12:16:42;;;;;;;5.10;2.30;;;;;;;26.74;40.87;99228.83;430726;1267;139012;-67
2023/06/29 12:27:09;;;;;;;19.20;3.30;;;;;;;26.72;40.45;99227.84;430876;1272;139520;-69
2023/06/29 12:37:33;;;;;;;12.40;3.90;;;;;;;26.40;40.98;99222.48;430860;1267;139276;-73
2023/06/29 12:47:57;;;;;;;11.00;2.90;;;;;;;26.04;41.39;99209.95;433935;1272;139010;-65
2023/06/29 12:58:21;;;;;;;2.90;2.10;;;;;;;25.73;41.51;99198.73;431026;1271;138581;-68
2023/06/29 13:08:45;;;;;;;5.70;2.60;;;;;;;25.54;41.91;99189.21;431088;1273;139495;-71
2023/06/29 13:19:10;;;;;;;11.40;3.10;;;;;;;25.26;42.44;99184.42;431690;1267;138887;-68
2023/06/29 13:29:35;;;;;;;2.00;1.90;;;;;;;25.17;42.82;99182.42;431497;1267;139137;-66
2023/06/29 13:39:59;;;;;;;8.50;2.30;;;;;;;25.34;42.60;99178.55;431663;1268;139484;-66
2023/06/29 13:50:23;;;;;;;19.30;5.70;;;;;;;25.40;42.43;99163.23;433304;1268;138897;-69
2023/06/29 14:01:00;;;;;;;3.90;1.90;;;;;;;25.61;42.12;99164.08;432784;1267;139114;-68
2023/06/29 14:11:27;;;;;;;3.00;1.60;;;;;;;25.51;41.96;99162.74;431806;1267;138796;-71
2023/06/29 14:21:51;;;;;;;3.00;2.20;;;;;;;25.40;41.88;99148.02;434598;1273;138804;-72
2023/06/29 14:32:15;;;;;;;3.00;1.60;;;;;;;25.34;41.97;99138.17;433229;1273;139318;-69
2023/06/29 14:42:40;;;;;;;3.60;2.20;;;;;;;25.32;42.00;99128.86;431467;1272;138373;-74
2023/06/29 14:53:04;;;;;;;3.50;1.50;;;;;;;25.23;42.07;99124.20;431807;1272;139830;-64
2023/06/29 15:03:28;;;;;;;2.80;1.40;;;;;;;25.67;42.08;99118.75;432326;1273;140842;-63
2023/06/29 15:13:52;;;;;;;2.30;1.90;;;;;;;26.00;41.41;99117.77;432185;1273;140778;-63
2023/06/29 15:24:16;;;;;;;1.80;1.40;;;;;;;26.58;40.37;99117.65;431481;1271;139215;-63
2023/06/29 15:34:40;;;;;;;2.80;1.80;;;;;;;26.60;39.94;99110.10;431153;1268;140130;-64
2023/06/29 15:45:08;;;;;;;2.30;1.60;;;;;;;26.25;40.29;99103.50;431587;1273;139087;-72
2023/06/29 15:55:31;;;;;;;3.80;1.70;;;;;;;26.03;40.21;99104.14;435310;1272;138901;-77
2023/06/29 16:05:55;;;;;;;4.00;1.40;;;;;;;25.93;40.33;99097.96;433061;1271;139025;-68
2023/06/29 16:16:19;;;;;;;2.50;1.40;;;;;;;25.69;40.31;99090.13;432059;1272;139197;-75
2023/06/29 16:26:44;;;;;;;3.90;1.40;;;;;;;25.53;40.59;99081.88;431260;1268;139342;-72
2023/06/29 16:37:08;;;;;;;2.10;1.40;;;;;;;25.29;41.19;99075.34;431939;1273;139003;-68
2023/06/29 16:47:34;;;;;;;2.60;1.30;;;;;;;24.94;41.25;99070.21;431376;1272;138360;-69
2023/06/29 16:57:58;;;;;;;2.10;1.80;;;;;;;24.87;41.55;99067.56;430748;1272;139001;-68
2023/06/29 17:08:22;;;;;;;1.30;1.20;;;;;;;24.60;41.61;99070.34;430737;1272;138850;-69
2023/06/29 17:18:47;;;;;;;4.90;2.00;;;;;;;24.26;41.81;99069.83;430941;1272;138795;-69
2023/06/29 17:29:11;;;;;;;1.40;1.10;;;;;;;24.00;42.47;99077.54;431044;1273;139191;-67
2023/06/29 17:39:35;;;;;;;1.60;1.50;;;;;;;23.79;43.20;99078.73;430727;1273;139028;-67
2023/06/29 17:49:59;;;;;;;1.30;1.00;;;;;;;23.58;43.57;99080.45;430616;1271;140532;-68
2023/06/29 18:00:23;;;;;;;3.10;1.70;;;;;;;23.81;43.83;99082.55;430970;1270;139234;-67
2023/06/29 18:10:48;;;;;;;2.90;1.90;;;;;;;23.92;43.54;99081.62;431039;1272;138774;-68
2023/06/29 18:21:12;;;;;;;5.60;1.50;;;;;;;23.30;44.11;99082.71;431601;1273;140227;-69
2023/06/29 18:31:37;;;;;;;3.30;2.70;;;;;;;22.73;45.33;99082.69;432297;1272;139078;-68
2023/06/29 18:42:01;;;;;;;3.10;1.70;;;;;;;22.17;46.52;99082.53;431154;1272;138574;-67
2023/06/29 18:52:25;;;;;;;3.20;1.80;;;;;;;21.69;48.03;99088.67;430867;1272;140524;-67
2023/06/29 19:02:49;;;;;;;6.20;2.10;;;;;;;21.16;49.56;99090.64;431111;1271;139036;-67
2023/06/29 19:13:14;;;;;;;7.40;2.30;;;;;;;20.62;51.17;99095.20;431787;1270;139852;-67
2023/06/29 19:23:42;;;;;;;6.40;1.90;;;;;;;20.13;52.64;99100.35;431334;1273;138604;-68
2023/06/29 19:34:06;;;;;;;4.00;2.10;;;;;;;19.64;53.87;99106.11;431520;1271;157184;-67
2023/06/29 19:44:31;;;;;;;3.30;2.90;;;;;;;19.22;55.09;99104.45;431016;1272;140288;-67
2023/06/29 19:54:55;;;;;;;3.80;2.40;;;;;;;18.81;56.49;99105.02;431164;1272;138554;-68
2023/06/29 20:05:19;;;;;;;4.10;2.80;;;;;;;18.40;57.79;99107.68;430681;1272;139721;-67
2023/06/29 20:15:44;;;;;;;5.10;2.80;;;;;;;18.00;58.93;99111.91;431207;1273;139710;-68
2023/06/29 20:26:09;;;;;;;5.50;1.90;;;;;;;17.68;59.81;99116.27;431215;1273;139178;-68
2023/06/29 20:36:33;;;;;;;2.50;2.20;;;;;;;17.37;60.82;99117.74;431268;1271;139848;-68
2023/06/29 20:46:57;;;;;;;5.40;3.10;;;;;;;17.08;61.58;99124.43;431110;1268;140793;-68
2023/06/29 20:57:22;;;;;;;5.20;3.40;;;;;;;16.85;62.91;99123.72;431410;1268;140363;-68
2023/06/29 21:07:46;;;;;;;9.60;3.20;;;;;;;16.61;64.21;99129.31;431932;1273;141321;-67
2023/06/29 21:18:12;;;;;;;6.60;4.70;;;;;;;16.39;65.31;99129.50;431399;1272;140340;-68
2023/06/29 21:28:40;;;;;;;4.50;2.70;;;;;;;16.17;66.02;99131.08;431739;1270;139330;-67
2023/06/29 21:39:05;;;;;;;4.90;3.10;;;;;;;15.96;66.59;99123.64;431465;1272;139782;-68
2023/06/29 21:49:29;;;;;;;4.90;3.30;;;;;;;15.73;67.45;99128.77;431039;1271;139976;-68
2023/06/29 21:59:53;;;;;;;4.20;3.00;;;;;;;15.54;68.04;99125.70;431490;1269;139838;-68
2023/06/29 22:10:17;;;;;;;5.80;3.50;;;;;;;15.34;68.83;99120.17;431165;1273;139734;-67
2023/06/29 22:20:41;;;;;;;8.50;4.40;;;;;;;15.15;69.36;99119.92;431975;1267;139602;-69
2023/06/29 22:31:05;;;;;;;3.60;3.20;;;;;;;15.01;70.04;99122.35;432212;1271;139316;-68
2023/06/29 22:41:29;;;;;;;6.00;3.60;;;;;;;14.90;70.66;99121.13;431224;1268;139581;-66
2023/06/29 22:51:53;;;;;;;4.00;3.30;;;;;;;14.78;71.02;99119.87;430984;1267;139622;-66
2023/06/29 23:02:18;;;;;;;3.90;3.20;;;;;;;14.64;71.66;99113.60;431035;1268;140339;-66
2023/06/29 23:12:45;;;;;;;4.00;3.20;;;;;;;14.48;72.05;99115.23;431238;1270;140206;-66
2023/06/29 23:23:08;;;;;;;4.40;3.50;;;;;;;14.29;72.50;99114.77;431506;1267;139456;-67
2023/06/29 23:33:33;;;;;;;4.40;3.20;;;;;;;14.12;73.15;99118.12;431398;1272;141181;-67
2023/06/29 23:44:04;;;;;;;4.40;3.90;;;;;;;13.94;73.75;99115.23;431332;1268;139618;-68
2023/06/29 23:54:28;;;;;;;4.30;3.90;;;;;;;13.82;74.75;99111.52;431313;1271;139164;-66
